WMKM/MKZ METAR and TAF weather

Enter ICAO airport designator
Station Type Date Time Source
WMKM METAR 2021/02/27 08:00 UTC NOAA

WMKM 270800Z VRB08G20KT 9999 FEW021 33/22 Q1005


Station Type Date Time Source
WMKM Decoded METAR 2021/02/27 08:00 UTC NOAA

Malacca, Malaysia (WMKM) 02-16N 102-15E 9M
Feb 27, 2021 - 03:00 AM EST / 2021.02.27 0800 UTC
Wind: Variable at 9 MPH (8 KT) gusting to 23 MPH (20 KT):0
Visibility: greater than 7 mile(s):0
Sky conditions: mostly clear
Temperature: 91 F (33 C)
Heat index: 97.5 F (36.4 C):1
Dew Point: 71 F (22 C)
Relative Humidity: 52%
Pressure (altimeter): 29.68 in. Hg (1005 hPa)
ob: WMKM 270800Z VRB08G20KT 9999 FEW021 33/22 Q1005
cycle: 8

Station Type Date Time Source
WMKM TAF 2021/02/27 06:00 UTC NOAA

TAF WMKM 270500Z 2706/2806 27006G20KT 9999 FEW020
BECMG 2711/2713 03005KT

Example: see airport list